Time;durP1;ratioP1;P1;durP2;ratioP2;P2;SDS_P1;SDS_P2;PMS_P1;PMS_P2;Temp;Humidity;BMP_temperature;BMP_pressure;BME280_temperature;BME280_humidity;BME280_pressure;Samples;Min_cycle;Max_cycle;Signal;HPM_P1;HPM_P2
2021/11/28 00:02:21;;;;;;;10.10;7.03;;;5.00;94.30;;;;;;5044820;28;20080;-85
2021/11/28 00:04:52;;;;;;;10.98;6.32;;;5.00;94.30;;;;;;5044694;28;20035;-85
2021/11/28 00:12:38;;;;;;;9.20;4.65;;;5.10;94.20;;;;;;5049028;28;20492;-85
2021/11/28 00:15:09;;;;;;;9.10;4.20;;;5.10;94.10;;;;;;5038802;28;20033;-87
2021/11/28 00:17:36;;;;;;;8.73;3.95;;;5.10;94.10;;;;;;5047512;28;20041;-86
2021/11/28 00:20:03;;;;;;;8.07;3.45;;;5.10;94.00;;;;;;5045399;28;20041;-83
2021/11/28 00:22:29;;;;;;;7.03;3.25;;;5.20;93.90;;;;;;5042426;28;20097;-85
2021/11/28 00:24:55;;;;;;;6.32;3.05;;;5.20;93.70;;;;;;5038214;28;20104;-88
2021/11/28 00:27:21;;;;;;;6.90;3.10;;;5.20;93.50;;;;;;5046426;28;20453;-85
2021/11/28 00:29:47;;;;;;;7.55;2.88;;;5.20;93.40;;;;;;5041220;28;20622;-84
2021/11/28 00:32:13;;;;;;;5.78;2.83;;;5.20;93.20;;;;;;5045277;28;20391;-86
2021/11/28 00:34:39;;;;;;;5.90;2.45;;;5.30;93.00;;;;;;5047564;28;20060;-85
2021/11/28 00:37:05;;;;;;;5.50;2.60;;;5.30;92.80;;;;;;5049037;28;20041;-85
2021/11/28 00:39:31;;;;;;;5.00;2.58;;;5.30;92.60;;;;;;5050784;28;20572;-85
2021/11/28 00:41:56;;;;;;;4.85;2.40;;;5.30;92.50;;;;;;5046416;28;20112;-87
2021/11/28 00:44:22;;;;;;;5.70;2.65;;;5.30;92.50;;;;;;5050419;28;20033;-85
2021/11/28 00:46:48;;;;;;;7.13;2.50;;;5.30;92.40;;;;;;5054329;28;20056;-84
2021/11/28 00:49:17;;;;;;;5.35;2.80;;;5.30;92.30;;;;;;5047443;28;20048;-86
2021/11/28 00:51:56;;;;;;;10.43;3.10;;;5.30;92.20;;;;;;5048860;28;20033;-85
2021/11/28 00:54:26;;;;;;;6.15;2.60;;;5.30;92.10;;;;;;5052738;28;20203;-84
2021/11/28 00:56:52;;;;;;;7.65;3.00;;;5.20;92.10;;;;;;5048328;28;20033;-84
2021/11/28 00:59:18;;;;;;;6.75;2.90;;;5.10;92.20;;;;;;5047755;28;20031;-85
2021/11/28 01:01:44;;;;;;;5.50;3.15;;;5.20;92.30;;;;;;5045823;28;20033;-85
2021/11/28 01:04:10;;;;;;;5.88;3.10;;;5.10;92.20;;;;;;5039379;28;20048;-85
2021/11/28 01:06:36;;;;;;;7.47;3.00;;;5.10;92.20;;;;;;5050135;28;20044;-85
2021/11/28 01:09:05;;;;;;;6.97;3.10;;;5.10;92.30;;;;;;5052458;28;20033;-84
2021/11/28 01:11:31;;;;;;;7.85;3.05;;;5.10;92.40;;;;;;5049761;28;20057;-85
2021/11/28 01:13:57;;;;;;;8.48;3.63;;;5.10;92.40;;;;;;5049663;28;20446;-85
2021/11/28 01:16:23;;;;;;;6.30;3.42;;;5.10;92.50;;;;;;5043713;28;20059;-84
2021/11/28 01:18:50;;;;;;;6.60;3.78;;;5.10;92.50;;;;;;5049171;28;20132;-86
2021/11/28 01:21:16;;;;;;;6.47;2.90;;;5.10;92.60;;;;;;5048025;28;20468;-84
2021/11/28 01:23:42;;;;;;;6.43;3.13;;;5.10;92.70;;;;;;5048959;28;20558;-84
2021/11/28 01:26:08;;;;;;;8.20;3.40;;;5.10;92.70;;;;;;5053240;28;20037;-83
2021/11/28 01:28:34;;;;;;;7.47;3.05;;;5.10;92.70;;;;;;5051733;28;20493;-84
2021/11/28 01:30:59;;;;;;;8.50;3.20;;;5.10;92.80;;;;;;5049327;28;20029;-85
2021/11/28 01:33:25;;;;;;;6.22;2.95;;;5.10;92.80;;;;;;5048969;28;20069;-85
2021/11/28 01:35:52;;;;;;;7.82;3.92;;;5.10;92.80;;;;;;5050459;28;20037;-85
2021/11/28 01:38:21;;;;;;;9.30;4.15;;;5.10;92.90;;;;;;5047938;28;20041;-85
2021/11/28 01:40:48;;;;;;;8.35;3.25;;;5.10;92.90;;;;;;5048367;28;20460;-84
2021/11/28 01:43:16;;;;;;;7.13;3.13;;;5.10;93.00;;;;;;5049130;28;20384;-84
2021/11/28 01:45:44;;;;;;;9.85;3.42;;;5.10;93.00;;;;;;5049215;28;20029;-84
2021/11/28 01:48:13;;;;;;;9.90;3.42;;;5.10;93.00;;;;;;5048579;28;20116;-84
2021/11/28 01:50:41;;;;;;;9.50;3.65;;;5.10;93.00;;;;;;5043851;28;20033;-84
2021/11/28 01:53:13;;;;;;;10.25;4.28;;;5.10;93.10;;;;;;5046242;28;20470;-84
2021/11/28 01:55:39;;;;;;;8.68;3.70;;;5.10;93.10;;;;;;5039671;28;20106;-84
2021/11/28 01:58:08;;;;;;;7.63;3.50;;;5.10;93.00;;;;;;5065457;28;20029;-83
2021/11/28 02:00:39;;;;;;;8.18;4.05;;;5.10;93.00;;;;;;5047673;28;20030;-84
2021/11/28 02:03:06;;;;;;;7.93;3.47;;;5.10;93.10;;;;;;5059066;28;20078;-84
2021/11/28 02:05:32;;;;;;;7.65;3.38;;;5.10;93.10;;;;;;5048316;28;20032;-85
2021/11/28 02:07:58;;;;;;;8.05;3.70;;;5.10;93.10;;;;;;5037011;28;20034;-84
2021/11/28 02:10:25;;;;;;;10.10;4.15;;;5.20;93.00;;;;;;5035091;28;20035;-84
2021/11/28 02:12:52;;;;;;;10.27;3.95;;;5.10;92.90;;;;;;5032000;28;20037;-84
2021/11/28 02:15:19;;;;;;;8.48;3.67;;;5.10;92.90;;;;;;5041461;28;20029;-85
2021/11/28 02:17:50;;;;;;;9.07;4.22;;;5.10;92.90;;;;;;5038733;28;20061;-85
2021/11/28 02:20:16;;;;;;;10.52;4.47;;;5.10;92.90;;;;;;5043240;28;20068;-86
2021/11/28 02:22:42;;;;;;;7.90;5.05;;;5.10;92.90;;;;;;5065947;28;20044;-83
2021/11/28 02:25:10;;;;;;;8.80;4.88;;;5.00;92.90;;;;;;5068599;28;20029;-83
2021/11/28 02:27:36;;;;;;;11.43;4.95;;;5.00;93.00;;;;;;5062975;28;20037;-85
2021/11/28 02:30:03;;;;;;;11.93;4.93;;;5.00;93.00;;;;;;5060001;28;20029;-85
2021/11/28 02:32:28;;;;;;;11.43;5.72;;;5.00;93.00;;;;;;5065025;28;20490;-85
2021/11/28 02:34:54;;;;;;;10.10;5.60;;;5.00;92.90;;;;;;5065790;28;20013;-86
2021/11/28 02:37:20;;;;;;;11.57;6.22;;;5.00;92.90;;;;;;5061037;28;20037;-89
2021/11/28 02:39:45;;;;;;;11.70;6.55;;;5.00;93.00;;;;;;5066067;28;20033;-84
2021/11/28 02:42:11;;;;;;;12.40;6.80;;;5.00;93.10;;;;;;5066623;28;20041;-84
2021/11/28 02:44:37;;;;;;;13.10;7.68;;;5.00;93.00;;;;;;5066517;28;20122;-84
2021/11/28 02:47:03;;;;;;;10.25;6.72;;;4.90;93.00;;;;;;5065923;28;20089;-89
2021/11/28 02:49:29;;;;;;;12.00;7.20;;;5.00;93.10;;;;;;5068996;28;20037;-88
2021/11/28 02:51:55;;;;;;;13.70;8.18;;;5.00;93.10;;;;;;5069747;28;20029;-85
2021/11/28 02:54:21;;;;;;;12.43;8.15;;;5.00;93.00;;;;;;5062420;28;21642;-85
2021/11/28 02:56:47;;;;;;;13.18;8.27;;;5.00;93.10;;;;;;5071039;28;20021;-86
2021/11/28 02:59:14;;;;;;;10.40;7.47;;;5.10;93.10;;;;;;5067851;28;20037;-88
2021/11/28 03:01:40;;;;;;;14.05;8.85;;;5.10;93.10;;;;;;5073395;28;20025;-85
2021/11/28 03:04:06;;;;;;;13.52;8.80;;;5.10;93.00;;;;;;5071730;28;20037;-87
2021/11/28 03:06:32;;;;;;;14.82;9.77;;;5.10;93.00;;;;;;5053397;28;20033;-86
2021/11/28 03:08:58;;;;;;;14.68;10.63;;;5.10;93.00;;;;;;5055291;28;20067;-85
2021/11/28 03:11:23;;;;;;;13.80;11.32;;;5.10;92.40;;;;;;5048005;28;20044;-85
2021/11/28 03:13:53;;;;;;;15.93;11.57;;;5.10;92.00;;;;;;5054227;28;20044;-85
2021/11/28 03:16:22;;;;;;;16.33;11.75;;;5.10;91.70;;;;;;5055096;28;20112;-86
2021/11/28 03:18:48;;;;;;;14.50;11.65;;;5.00;91.40;;;;;;5047919;28;20765;-85
2021/11/28 03:21:17;;;;;;;21.05;13.05;;;5.00;91.20;;;;;;5044603;28;20120;-85
2021/11/28 03:23:45;;;;;;;16.00;12.57;;;5.00;90.50;;;;;;5050465;28;20457;-85
2021/11/28 03:26:29;;;;;;;17.77;12.95;;;4.90;90.30;;;;;;5040206;28;20029;-85
2021/11/28 03:28:59;;;;;;;17.17;12.55;;;4.90;89.90;;;;;;5048814;28;20036;-85
2021/11/28 03:31:27;;;;;;;22.83;15.05;;;4.90;89.20;;;;;;5043180;28;20485;-85
2021/11/28 03:33:53;;;;;;;17.77;13.93;;;4.90;89.20;;;;;;5040376;28;20037;-84
2021/11/28 03:36:23;;;;;;;20.00;13.90;;;4.80;89.30;;;;;;5047683;28;20492;-85
2021/11/28 03:38:50;;;;;;;18.42;13.77;;;4.80;89.30;;;;;;5049666;28;20040;-85
2021/11/28 03:41:18;;;;;;;20.20;15.02;;;4.70;89.20;;;;;;5049771;28;20029;-85
2021/11/28 03:43:45;;;;;;;20.10;14.80;;;4.70;89.00;;;;;;5047605;28;20033;-84
2021/11/28 03:46:11;;;;;;;20.27;15.68;;;4.70;88.70;;;;;;5047123;28;20045;-86
2021/11/28 03:48:37;;;;;;;20.67;15.35;;;4.70;88.50;;;;;;5052202;28;20047;-85
2021/11/28 03:51:04;;;;;;;20.52;16.20;;;4.70;88.60;;;;;;5048185;28;20036;-84
2021/11/28 03:53:31;;;;;;;21.77;16.10;;;4.60;88.60;;;;;;5051312;28;20025;-87
2021/11/28 03:56:01;;;;;;;22.50;16.35;;;4.60;88.50;;;;;;5050210;28;20219;-85
2021/11/28 03:58:28;;;;;;;20.75;16.85;;;4.60;88.50;;;;;;5058190;28;20055;-86
2021/11/28 04:00:55;;;;;;;22.48;17.15;;;4.50;88.50;;;;;;5042228;28;20746;-85
2021/11/28 04:03:20;;;;;;;21.80;16.65;;;4.50;88.60;;;;;;5048616;28;20055;-88
2021/11/28 04:05:46;;;;;;;23.73;17.67;;;4.50;88.70;;;;;;5062109;28;20036;-85
2021/11/28 04:08:12;;;;;;;23.80;18.50;;;4.50;88.60;;;;;;5053896;28;20167;-85
2021/11/28 04:10:37;;;;;;;26.17;17.80;;;4.40;88.60;;;;;;5039338;28;20041;-85
2021/11/28 04:13:04;;;;;;;24.42;18.98;;;4.40;88.70;;;;;;5050738;28;20460;-84
2021/11/28 04:15:30;;;;;;;24.35;17.83;;;4.30;88.80;;;;;;5054900;28;20032;-86
2021/11/28 04:17:56;;;;;;;23.23;17.75;;;4.30;88.80;;;;;;5046852;28;20033;-86
2021/11/28 04:20:21;;;;;;;26.85;18.52;;;4.30;88.70;;;;;;5049376;28;20032;-84
2021/11/28 04:22:47;;;;;;;25.45;18.98;;;4.20;88.80;;;;;;5054124;28;20028;-85
2021/11/28 04:25:14;;;;;;;23.33;17.98;;;4.20;88.90;;;;;;5049915;28;20043;-85
2021/11/28 04:27:40;;;;;;;23.80;18.70;;;4.20;88.90;;;;;;5051044;28;20503;-86
2021/11/28 04:30:07;;;;;;;23.52;17.80;;;4.20;88.80;;;;;;5050802;28;20040;-86
2021/11/28 04:32:33;;;;;;;26.40;18.50;;;4.20;88.90;;;;;;5048812;28;20449;-85
2021/11/28 04:34:59;;;;;;;25.60;19.23;;;4.10;89.00;;;;;;5049317;28;20123;-87
2021/11/28 04:37:25;;;;;;;24.90;19.58;;;4.20;89.10;;;;;;5049690;28;20084;-84
2021/11/28 04:39:51;;;;;;;25.60;19.33;;;4.10;89.10;;;;;;5051267;28;20033;-86
2021/11/28 04:42:16;;;;;;;26.60;19.70;;;4.10;89.30;;;;;;5047940;28;20537;-86
2021/11/28 04:44:42;;;;;;;25.65;18.90;;;4.10;89.40;;;;;;5043246;28;20032;-86
2021/11/28 04:47:08;;;;;;;26.23;19.98;;;4.00;89.40;;;;;;5059879;28;20048;-92
2021/11/28 04:49:33;;;;;;;27.20;20.35;;;4.00;89.50;;;;;;5065236;28;20017;-88
2021/11/28 04:51:59;;;;;;;24.73;18.73;;;4.00;89.60;;;;;;5076462;28;20037;-89
2021/11/28 04:54:25;;;;;;;25.80;20.15;;;3.90;89.60;;;;;;5055739;28;20124;-85
2021/11/28 04:56:51;;;;;;;25.52;19.20;;;3.90;89.70;;;;;;5045332;28;20030;-86
2021/11/28 04:59:17;;;;;;;24.27;18.17;;;3.90;89.70;;;;;;5049161;28;20037;-86
2021/11/28 05:01:43;;;;;;;23.20;17.88;;;3.90;89.80;;;;;;5050542;28;20075;-87
2021/11/28 05:04:10;;;;;;;26.67;18.92;;;3.80;89.80;;;;;;5050651;28;20025;-90
2021/11/28 05:06:37;;;;;;;24.17;19.05;;;3.80;89.80;;;;;;5047486;28;20068;-87
2021/11/28 05:09:03;;;;;;;26.45;19.73;;;3.80;89.90;;;;;;5052916;28;20033;-85
2021/11/28 05:11:29;;;;;;;25.55;19.90;;;3.70;90.00;;;;;;5048669;28;20412;-86
2021/11/28 05:13:55;;;;;;;24.17;18.33;;;3.70;90.00;;;;;;5050686;28;20022;-86
2021/11/28 05:16:21;;;;;;;24.98;18.38;;;3.60;90.10;;;;;;5048274;28;20044;-84
2021/11/28 05:18:47;;;;;;;24.98;17.55;;;3.60;90.20;;;;;;5043552;28;20022;-86
2021/11/28 05:21:12;;;;;;;25.17;19.40;;;3.50;90.30;;;;;;5048202;28;20380;-86
2021/11/28 05:23:38;;;;;;;25.77;18.95;;;3.50;90.40;;;;;;5048340;28;20032;-87
2021/11/28 05:26:04;;;;;;;25.60;18.88;;;3.40;90.50;;;;;;5045247;28;20041;-85
2021/11/28 05:28:30;;;;;;;21.63;17.70;;;3.40;90.70;;;;;;5047283;28;20086;-85
2021/11/28 05:30:55;;;;;;;24.85;18.08;;;3.40;90.70;;;;;;5047199;28;20112;-86
2021/11/28 05:33:21;;;;;;;26.38;19.70;;;3.40;90.80;;;;;;5047897;28;20033;-86
2021/11/28 05:35:47;;;;;;;25.83;20.55;;;3.40;90.80;;;;;;5048248;28;20033;-87
2021/11/28 05:38:13;;;;;;;25.83;20.17;;;3.40;90.90;;;;;;5050222;28;20040;-85
2021/11/28 05:40:38;;;;;;;25.33;19.58;;;3.40;91.00;;;;;;5041732;28;20473;-86
2021/11/28 05:43:04;;;;;;;25.08;18.63;;;3.40;91.10;;;;;;5038535;28;20092;-85
2021/11/28 05:45:30;;;;;;;27.15;20.80;;;3.50;91.20;;;;;;5051438;28;20128;-88
2021/11/28 05:47:56;;;;;;;26.38;19.10;;;3.50;91.10;;;;;;5064997;28;20045;-84
2021/11/28 05:50:24;;;;;;;25.95;19.30;;;3.50;91.20;;;;;;5055784;28;20037;-87
2021/11/28 05:52:50;;;;;;;27.95;19.90;;;3.50;91.20;;;;;;5056340;28;20029;-85
2021/11/28 05:55:17;;;;;;;26.65;19.45;;;3.60;91.30;;;;;;5050396;28;20586;-86
2021/11/28 05:57:42;;;;;;;27.30;20.52;;;3.60;91.30;;;;;;5048698;28;21025;-85
2021/11/28 06:00:11;;;;;;;23.75;19.05;;;3.60;91.30;;;;;;5048631;28;20036;-85
2021/11/28 06:02:37;;;;;;;26.77;20.23;;;3.60;91.30;;;;;;5049853;28;20033;-87
2021/11/28 06:05:03;;;;;;;27.38;19.73;;;3.60;91.30;;;;;;5045566;28;20381;-86
2021/11/28 06:07:30;;;;;;;25.17;18.58;;;3.60;91.40;;;;;;5052469;28;20053;-86
2021/11/28 06:09:55;;;;;;;25.42;19.30;;;3.50;91.40;;;;;;5040828;28;20049;-86
2021/11/28 06:12:22;;;;;;;26.02;19.98;;;3.50;91.50;;;;;;5046736;28;20045;-86
2021/11/28 06:14:47;;;;;;;26.45;19.00;;;3.50;91.60;;;;;;5049787;28;20087;-86
2021/11/28 06:17:13;;;;;;;27.33;19.70;;;3.40;91.70;;;;;;5046207;28;20041;-87
2021/11/28 06:19:39;;;;;;;28.95;20.65;;;3.40;91.80;;;;;;5048757;28;20033;-85
2021/11/28 06:22:06;;;;;;;30.02;21.65;;;3.40;91.90;;;;;;5041715;28;20124;-85
2021/11/28 06:24:32;;;;;;;29.08;19.98;;;3.40;91.90;;;;;;5052400;28;20086;-87
2021/11/28 06:26:58;;;;;;;26.10;18.15;;;3.40;91.90;;;;;;5082078;28;20045;-87
2021/11/28 06:29:23;;;;;;;24.95;19.33;;;3.40;91.90;;;;;;5073332;28;20045;-89
2021/11/28 06:31:49;;;;;;;26.58;18.50;;;3.40;91.90;;;;;;5072848;28;20028;-89
2021/11/28 06:34:15;;;;;;;27.58;19.95;;;3.40;92.00;;;;;;5073533;28;20036;-90
2021/11/28 06:36:41;;;;;;;27.75;19.98;;;3.40;91.90;;;;;;5066339;28;20135;-86
2021/11/28 06:39:08;;;;;;;28.70;21.88;;;3.40;92.00;;;;;;5052070;28;20049;-86
2021/11/28 06:41:33;;;;;;;27.40;21.67;;;3.40;92.00;;;;;;5053253;28;20032;-86
2021/11/28 06:43:59;;;;;;;30.63;23.25;;;3.40;92.10;;;;;;5047017;28;20090;-85
2021/11/28 06:46:25;;;;;;;47.47;38.92;;;3.50;92.10;;;;;;5046457;28;20055;-86
2021/11/28 06:48:51;;;;;;;42.33;35.80;;;3.60;92.30;;;;;;5051511;28;20025;-87
2021/11/28 06:51:17;;;;;;;38.70;30.98;;;3.60;92.30;;;;;;5055921;28;20037;-86
2021/11/28 06:53:42;;;;;;;36.17;28.48;;;3.60;92.30;;;;;;5048529;28;20048;-87
2021/11/28 06:56:08;;;;;;;34.47;27.30;;;3.60;92.30;;;;;;5051176;28;20477;-86
2021/11/28 06:58:35;;;;;;;35.33;26.90;;;3.70;92.30;;;;;;5047341;28;20064;-86
2021/11/28 07:01:01;;;;;;;34.80;26.38;;;3.70;92.40;;;;;;5049165;28;20029;-86
2021/11/28 07:03:27;;;;;;;41.95;30.95;;;3.70;92.40;;;;;;5052044;28;20037;-86
2021/11/28 07:05:53;;;;;;;45.33;35.30;;;3.80;92.40;;;;;;5054842;28;20040;-87
2021/11/28 07:08:19;;;;;;;55.10;40.50;;;3.70;92.50;;;;;;5047691;28;20036;-85
2021/11/28 07:10:45;;;;;;;53.50;41.05;;;3.80;92.50;;;;;;5050314;28;20053;-85
2021/11/28 07:13:11;;;;;;;46.08;35.58;;;3.80;92.60;;;;;;5053498;28;20037;-85
2021/11/28 07:15:38;;;;;;;55.47;31.90;;;3.90;92.70;;;;;;5061603;28;20044;-85
2021/11/28 07:18:04;;;;;;;36.45;26.75;;;3.90;92.70;;;;;;5069046;28;20032;-85
2021/11/28 07:20:31;;;;;;;34.60;26.17;;;3.90;92.80;;;;;;5050726;28;20120;-86
2021/11/28 07:23:01;;;;;;;37.00;24.95;;;4.00;92.90;;;;;;5044682;28;20033;-85
2021/11/28 07:25:27;;;;;;;33.72;22.95;;;4.10;92.90;;;;;;5051402;28;20040;-84
2021/11/28 07:27:52;;;;;;;31.33;22.17;;;4.00;92.80;;;;;;5045922;28;20045;-82
2021/11/28 07:30:19;;;;;;;28.77;21.50;;;4.10;92.80;;;;;;5043154;28;21675;-84
2021/11/28 07:32:44;;;;;;;27.33;19.63;;;4.10;92.80;;;;;;5050257;28;20384;-86
2021/11/28 07:35:10;;;;;;;28.48;20.45;;;4.10;92.90;;;;;;5043644;28;20087;-85
2021/11/28 07:37:36;;;;;;;27.23;18.55;;;4.20;92.90;;;;;;5047299;28;20563;-84
2021/11/28 07:40:03;;;;;;;23.90;18.27;;;4.20;92.90;;;;;;5043843;28;20064;-80
2021/11/28 07:42:29;;;;;;;25.13;16.88;;;4.20;93.00;;;;;;5039013;28;20030;-82
2021/11/28 07:44:56;;;;;;;22.83;16.45;;;4.20;93.00;;;;;;5044574;28;20158;-82
2021/11/28 07:47:21;;;;;;;20.83;15.80;;;4.20;93.10;;;;;;5047526;28;20049;-81
2021/11/28 07:49:47;;;;;;;24.40;17.65;;;4.30;93.10;;;;;;5041811;28;20498;-85
2021/11/28 07:52:13;;;;;;;22.48;17.20;;;4.30;93.10;;;;;;5037607;28;20037;-80
2021/11/28 07:54:39;;;;;;;20.55;15.20;;;4.40;93.10;;;;;;5046245;28;20107;-79
2021/11/28 07:57:04;;;;;;;18.63;12.40;;;4.40;93.10;;;;;;5047486;28;20030;-79
2021/11/28 07:59:33;;;;;;;19.25;13.48;;;4.40;93.20;;;;;;5045889;28;20033;-78
2021/11/28 08:01:59;;;;;;;19.15;11.00;;;4.50;93.20;;;;;;5047044;28;20395;-78
2021/11/28 08:04:25;;;;;;;14.02;10.15;;;4.60;93.20;;;;;;5039089;28;20034;-78
2021/11/28 08:06:51;;;;;;;17.75;10.20;;;4.60;93.10;;;;;;5038431;28;20187;-78
2021/11/28 08:09:17;;;;;;;16.13;9.48;;;4.60;93.10;;;;;;5043233;28;20116;-79
2021/11/28 08:11:42;;;;;;;11.60;7.25;;;4.70;93.10;;;;;;5043350;28;20176;-78
2021/11/28 08:14:08;;;;;;;12.20;7.43;;;4.70;93.10;;;;;;5042782;28;20043;-78
2021/11/28 08:16:33;;;;;;;11.00;6.35;;;4.80;93.10;;;;;;5045056;28;20032;-79
2021/11/28 08:18:59;;;;;;;9.55;5.50;;;4.80;93.00;;;;;;5045856;28;20035;-79
2021/11/28 08:21:28;;;;;;;11.95;4.63;;;4.90;93.00;;;;;;5042264;28;20033;-78
2021/11/28 08:23:55;;;;;;;9.93;4.32;;;4.90;93.00;;;;;;5039415;28;20645;-79
2021/11/28 08:26:21;;;;;;;12.18;5.18;;;5.00;93.00;;;;;;5045268;28;20089;-79
2021/11/28 08:28:47;;;;;;;12.20;6.28;;;5.00;93.00;;;;;;5046303;28;20065;-82
2021/11/28 08:31:13;;;;;;;11.73;5.55;;;5.00;92.90;;;;;;5044380;28;20083;-78
2021/11/28 08:33:38;;;;;;;8.80;5.20;;;5.00;92.80;;;;;;5046596;28;20037;-78
2021/11/28 08:36:04;;;;;;;8.93;5.35;;;5.00;92.70;;;;;;5044695;28;20047;-77
2021/11/28 08:38:32;;;;;;;8.32;4.47;;;5.00;92.70;;;;;;5043221;28;20036;-77
2021/11/28 08:40:58;;;;;;;7.45;3.85;;;5.00;92.60;;;;;;5044424;28;20036;-77
2021/11/28 08:43:24;;;;;;;8.75;4.38;;;5.00;92.60;;;;;;5048023;28;20043;-78
2021/11/28 08:45:49;;;;;;;7.10;3.80;;;5.00;92.70;;;;;;5044988;28;20041;-79
2021/11/28 08:48:16;;;;;;;7.47;3.90;;;5.00;92.30;;;;;;5039079;28;20067;-79
2021/11/28 08:50:41;;;;;;;9.88;4.00;;;5.00;92.20;;;;;;5044054;28;20026;-79
2021/11/28 08:53:07;;;;;;;6.72;3.97;;;5.00;92.10;;;;;;5045006;28;20048;-80
2021/11/28 08:55:33;;;;;;;8.63;4.03;;;5.00;91.50;;;;;;5044818;28;20146;-78
2021/11/28 08:57:59;;;;;;;10.45;4.45;;;5.00;91.60;;;;;;5042366;28;20459;-79
2021/11/28 09:00:25;;;;;;;7.80;4.93;;;5.00;91.50;;;;;;5045526;28;20392;-79
2021/11/28 09:02:52;;;;;;;9.95;5.53;;;5.10;91.60;;;;;;5043065;28;20591;-79
2021/11/28 09:05:20;;;;;;;14.95;5.78;;;5.00;91.60;;;;;;5044654;28;20459;-79
2021/11/28 09:07:47;;;;;;;10.02;5.88;;;5.10;91.60;;;;;;5042773;28;21244;-79
2021/11/28 09:10:14;;;;;;;13.48;6.50;;;5.10;91.60;;;;;;5042277;28;20052;-79
2021/11/28 09:12:41;;;;;;;9.27;5.88;;;5.10;91.50;;;;;;5045890;28;20041;-78
2021/11/28 09:15:07;;;;;;;10.65;5.63;;;5.10;91.50;;;;;;5044463;28;20464;-80
2021/11/28 09:17:33;;;;;;;10.85;5.93;;;5.10;91.60;;;;;;5043389;28;20040;-81
2021/11/28 09:20:04;;;;;;;8.13;5.05;;;5.10;91.50;;;;;;5043998;28;20036;-79
2021/11/28 09:25:06;;;;;;;9.43;5.13;;;5.20;91.20;;;;;;5043953;28;20124;-79
2021/11/28 09:27:31;;;;;;;9.23;4.30;;;5.10;90.80;;;;;;5041992;28;20559;-79
2021/11/28 09:29:57;;;;;;;9.07;4.80;;;5.10;90.70;;;;;;5045363;28;20124;-78
2021/11/28 09:32:23;;;;;;;8.18;4.22;;;5.10;90.60;;;;;;5041480;28;20025;-80
2021/11/28 09:34:49;;;;;;;9.95;4.78;;;5.10;90.60;;;;;;5035774;28;20089;-78
2021/11/28 09:37:15;;;;;;;9.15;4.72;;;5.10;90.70;;;;;;5039798;28;20448;-78
2021/11/28 09:39:45;;;;;;;10.18;6.30;;;5.10;90.80;;;;;;5036563;28;20060;-78
2021/11/28 09:42:15;;;;;;;9.65;5.28;;;5.10;91.00;;;;;;5042106;28;20611;-80
2021/11/28 09:44:42;;;;;;;5.43;2.53;;;5.00;91.00;;;;;;5037129;28;20045;-78
2021/11/28 09:47:10;;;;;;;9.63;4.13;;;4.80;90.10;;;;;;5036355;28;20057;-78
2021/11/28 09:49:37;;;;;;;7.45;3.17;;;4.60;89.90;;;;;;5037764;28;20033;-78
2021/11/28 09:52:06;;;;;;;4.22;2.15;;;4.60;89.90;;;;;;5038028;28;20476;-77
2021/11/28 09:54:35;;;;;;;8.98;3.65;;;4.60;90.10;;;;;;5037421;28;20120;-78
2021/11/28 09:57:01;;;;;;;14.18;5.35;;;4.50;89.90;;;;;;5035450;28;20476;-79
2021/11/28 09:59:27;;;;;;;6.25;2.30;;;4.40;90.10;;;;;;5039351;28;20033;-79
2021/11/28 10:01:54;;;;;;;14.85;5.47;;;4.40;90.60;;;;;;5042192;28;20036;-80
2021/11/28 10:04:20;;;;;;;8.65;3.08;;;4.50;90.80;;;;;;5038965;28;20503;-77
2021/11/28 10:06:47;;;;;;;3.72;1.73;;;4.50;90.90;;;;;;5039242;28;20038;-78
2021/11/28 10:09:13;;;;;;;3.45;1.92;;;4.50;91.10;;;;;;5040653;28;20033;-78
2021/11/28 10:11:42;;;;;;;2.80;1.70;;;4.50;91.20;;;;;;5043788;28;20483;-77
2021/11/28 10:14:14;;;;;;;4.75;2.03;;;4.50;91.40;;;;;;5047167;28;20195;-78
2021/11/28 10:16:41;;;;;;;4.30;1.75;;;4.50;91.60;;;;;;5036391;28;20048;-79
2021/11/28 10:19:08;;;;;;;2.97;1.50;;;4.40;91.50;;;;;;5038437;28;20119;-78
2021/11/28 10:21:33;;;;;;;6.03;1.83;;;4.30;91.40;;;;;;5039242;28;20057;-79
2021/11/28 10:24:11;;;;;;;1.73;1.33;;;4.30;91.40;;;;;;5041960;28;20061;-77
2021/11/28 10:26:57;;;;;;;3.30;1.30;;;4.20;91.10;;;;;;5034803;28;20396;-80
2021/11/28 10:29:27;;;;;;;5.97;2.25;;;4.20;91.20;;;;;;5042908;28;20071;-79
2021/11/28 10:31:58;;;;;;;2.75;1.60;;;4.20;91.20;;;;;;5039373;28;20057;-79
2021/11/28 10:34:39;;;;;;;3.38;1.85;;;4.20;91.00;;;;;;5040967;28;20056;-79
2021/11/28 10:37:04;;;;;;;5.65;2.80;;;4.30;90.90;;;;;;5038421;28;20043;-79
2021/11/28 10:39:55;;;;;;;5.63;2.50;;;4.40;90.70;;;;;;5041524;28;20041;-79
2021/11/28 10:42:24;;;;;;;6.40;3.63;;;4.40;90.70;;;;;;5043994;28;20047;-80
2021/11/28 10:45:08;;;;;;;2.75;2.03;;;4.40;90.90;;;;;;5054832;28;20037;-80
2021/11/28 10:47:38;;;;;;;3.15;2.00;;;4.40;90.90;;;;;;5063043;28;20423;-78
2021/11/28 10:50:13;;;;;;;4.47;2.10;;;4.40;91.00;;;;;;5058520;28;20036;-80
2021/11/28 10:52:41;;;;;;;4.40;2.42;;;4.40;91.20;;;;;;5037007;28;20076;-78
2021/11/28 10:55:27;;;;;;;4.43;2.50;;;4.40;91.40;;;;;;5047063;28;20087;-80
2021/11/28 10:58:25;;;;;;;4.32;1.92;;;4.40;91.60;;;;;;5039286;28;20508;-80
2021/11/28 11:00:50;;;;;;;3.80;2.00;;;4.40;91.70;;;;;;5042199;28;20033;-79
2021/11/28 11:03:21;;;;;;;5.10;1.90;;;4.50;91.70;;;;;;5041045;28;20029;-78
2021/11/28 11:05:58;;;;;;;8.68;2.85;;;4.40;91.20;;;;;;5042686;28;20163;-79
2021/11/28 11:08:27;;;;;;;5.70;2.22;;;4.40;91.10;;;;;;5042375;28;20225;-79
2021/11/28 11:11:11;;;;;;;3.88;1.85;;;4.40;91.10;;;;;;5044102;28;20091;-79
2021/11/28 11:14:00;;;;;;;10.00;4.20;;;4.40;91.10;;;;;;5046948;28;20119;-79
2021/11/28 11:16:36;;;;;;;6.80;2.65;;;4.30;91.10;;;;;;5041505;28;20139;-78
2021/11/28 11:19:27;;;;;;;3.88;2.08;;;4.30;91.00;;;;;;5046855;28;20353;-79
2021/11/28 11:22:18;;;;;;;4.00;1.88;;;4.30;90.70;;;;;;5046137;28;20045;-79
2021/11/28 11:24:57;;;;;;;3.80;1.70;;;4.30;90.70;;;;;;5043797;28;20037;-78
2021/11/28 11:27:35;;;;;;;7.07;2.05;;;4.20;90.40;;;;;;5044485;28;20047;-78
2021/11/28 11:30:25;;;;;;;4.28;2.30;;;4.20;90.50;;;;;;5045219;28;20041;-79
2021/11/28 11:32:56;;;;;;;4.75;1.85;;;4.20;90.20;;;;;;5039161;28;20123;-79
2021/11/28 11:35:23;;;;;;;5.75;2.33;;;4.20;90.10;;;;;;5046708;28;20048;-78
2021/11/28 11:37:50;;;;;;;7.85;2.60;;;4.10;90.20;;;;;;5044078;28;20044;-78
2021/11/28 11:40:19;;;;;;;8.57;4.75;;;4.10;90.40;;;;;;5045743;28;20049;-79
2021/11/28 11:42:46;;;;;;;7.07;2.95;;;4.20;90.80;;;;;;5042101;28;20029;-78
2021/11/28 11:45:18;;;;;;;6.13;2.88;;;4.30;90.80;;;;;;5046951;28;20048;-80
2021/11/28 11:47:44;;;;;;;5.45;1.80;;;4.30;90.70;;;;;;5044925;28;20102;-79
2021/11/28 11:50:14;;;;;;;5.05;1.77;;;4.30;90.60;;;;;;5045826;28;20194;-81
2021/11/28 11:52:40;;;;;;;5.63;1.80;;;4.40;90.80;;;;;;5047563;28;20440;-79
2021/11/28 11:55:30;;;;;;;3.83;1.73;;;4.30;90.60;;;;;;5047885;28;20128;-80
2021/11/28 11:58:18;;;;;;;4.50;1.98;;;4.30;90.60;;;;;;5046555;28;20067;-79
2021/11/28 12:01:13;;;;;;;4.55;1.98;;;4.30;90.80;;;;;;5051054;28;20040;-80
2021/11/28 12:03:46;;;;;;;6.47;1.92;;;4.30;90.90;;;;;;5035387;28;20056;-80
2021/11/28 12:06:12;;;;;;;5.40;2.33;;;4.30;91.00;;;;;;5040957;28;20049;-81
2021/11/28 12:08:49;;;;;;;5.60;2.35;;;4.20;91.10;;;;;;5040675;28;20029;-80
2021/11/28 12:11:19;;;;;;;5.35;2.28;;;4.30;91.20;;;;;;5054539;28;20210;-79
2021/11/28 12:13:44;;;;;;;6.40;2.20;;;4.30;91.20;;;;;;5039153;28;20071;-79
2021/11/28 12:16:14;;;;;;;5.68;1.77;;;4.20;91.00;;;;;;5034444;28;20088;-80
2021/11/28 12:18:52;;;;;;;10.90;3.55;;;4.20;90.80;;;;;;5037120;28;20078;-80
2021/11/28 12:21:39;;;;;;;8.10;2.92;;;4.30;90.90;;;;;;5041706;28;20049;-80
2021/11/28 12:24:28;;;;;;;15.70;7.47;;;4.10;90.30;;;;;;5043473;28;20065;-79
2021/11/28 12:27:05;;;;;;;8.98;3.40;;;4.10;90.30;;;;;;5043904;28;20053;-79
2021/11/28 12:29:43;;;;;;;11.40;4.45;;;4.10;90.70;;;;;;5037941;28;20040;-79
2021/11/28 12:32:09;;;;;;;7.22;3.97;;;4.10;91.00;;;;;;5045554;28;20090;-81
2021/11/28 12:34:49;;;;;;;8.38;3.92;;;4.10;90.90;;;;;;5059769;28;20045;-81
2021/11/28 12:37:37;;;;;;;8.75;2.38;;;4.10;90.00;;;;;;5058421;28;20041;-79
2021/11/28 12:40:23;;;;;;;7.10;2.85;;;4.10;90.10;;;;;;5054515;28;20037;-80
2021/11/28 12:42:50;;;;;;;7.65;3.30;;;4.20;90.10;;;;;;5037531;28;20044;-80
2021/11/28 12:45:35;;;;;;;6.47;2.53;;;4.30;90.20;;;;;;5039466;28;20032;-81
2021/11/28 12:48:11;;;;;;;5.25;2.08;;;4.30;90.10;;;;;;5034567;28;20046;-80
2021/11/28 12:50:50;;;;;;;6.97;3.47;;;4.40;90.20;;;;;;5035677;28;20037;-79
2021/11/28 12:53:28;;;;;;;5.63;3.00;;;4.50;90.10;;;;;;5038631;28;20048;-80
2021/11/28 12:56:13;;;;;;;6.88;3.75;;;4.60;90.20;;;;;;5042510;28;20108;-82
2021/11/28 12:59:10;;;;;;;5.75;3.42;;;4.60;90.20;;;;;;5042799;28;20412;-80
2021/11/28 13:01:55;;;;;;;11.00;6.28;;;4.60;90.10;;;;;;5043862;28;20396;-80
2021/11/28 13:04:38;;;;;;;11.05;4.70;;;4.70;90.20;;;;;;5051034;28;20045;-80